N211TS EINN-LGSR
Flight info
| Callsign | N211TS |
|---|---|
| Flight time | N/A |
| Altitude | 35000 |
| Route | ABAGU3A ABAGU DCT KRAGY DCT SAWPE Q63 CPT UL9 BIG L607 KONAN UL607 KOK M150 GEBDA Y173 PABLA Z721 UTABA DCT GEDSO DCT OGODI DCT KOREX DCT GLOMY DCT RETRA DCT BITLA UN132 TUXEM UT514 PEXAN |
| Aircraft | A320/M-SDE3FGHIRWY/LB1 |
Departure
| Time | N/A |
|---|---|
| Airport | Shannon Airport (EINN) |
Arrival
| Time | 2026-05-04 19:42 |
|---|---|
| Airport | Santorini International Airport (LGSR) |
| Time | Latitude | Longitude | Altitude | Speed | Heading |
|---|---|---|---|---|---|
| 2026-05-04 19:20 | 37.55815 | 24.29941 | 35055 ft | 502 kts | 139° |
| 2026-05-04 19:20 | 37.53267 | 24.32935 | 34823 ft | 502 kts | 134° |
| 2026-05-04 19:20 | 37.50807 | 24.35974 | 34584 ft | 502 kts | 134° |
| 2026-05-04 19:20 | 37.48310 | 24.39064 | 33883 ft | 506 kts | 134° |
| 2026-05-04 19:21 | 37.45799 | 24.42177 | 33184 ft | 504 kts | 134° |
| 2026-05-04 19:21 | 37.43321 | 24.45250 | 32625 ft | 498 kts | 134° |
| 2026-05-04 19:21 | 37.40858 | 24.48306 | 31915 ft | 496 kts | 134° |
| 2026-05-04 19:21 | 37.38413 | 24.51338 | 31129 ft | 490 kts | 134° |
| 2026-05-04 19:22 | 37.35993 | 24.54333 | 29687 ft | 487 kts | 134° |
| 2026-05-04 19:22 | 37.33581 | 24.57311 | 28075 ft | 486 kts | 134° |
| 2026-05-04 19:22 | 37.31228 | 24.60209 | 27099 ft | 472 kts | 134° |
| 2026-05-04 19:22 | 37.28908 | 24.63063 | 25978 ft | 462 kts | 134° |
| 2026-05-04 19:23 | 37.26627 | 24.65869 | 24859 ft | 457 kts | 134° |
| 2026-05-04 19:23 | 37.24344 | 24.68677 | 23807 ft | 461 kts | 134° |
| 2026-05-04 19:23 | 37.22059 | 24.71485 | 22845 ft | 457 kts | 134° |
| 2026-05-04 19:23 | 37.19792 | 24.74265 | 22027 ft | 454 kts | 134° |
| 2026-05-04 19:24 | 37.17547 | 24.77021 | 21203 ft | 450 kts | 134° |
| 2026-05-04 19:24 | 37.15342 | 24.79727 | 20381 ft | 449 kts | 134° |
| 2026-05-04 19:24 | 37.13091 | 24.82485 | 19547 ft | 447 kts | 134° |
| 2026-05-04 19:24 | 37.10905 | 24.85164 | 18745 ft | 445 kts | 134° |
| 2026-05-04 19:25 | 37.08697 | 24.87869 | 17848 ft | 443 kts | 134° |
| 2026-05-04 19:25 | 37.06501 | 24.90553 | 17036 ft | 439 kts | 134° |
| 2026-05-04 19:25 | 37.04322 | 24.93211 | 16228 ft | 436 kts | 134° |
| 2026-05-04 19:25 | 37.02156 | 24.95848 | 15430 ft | 433 kts | 134° |
| 2026-05-04 19:26 | 37.00003 | 24.98467 | 14656 ft | 430 kts | 134° |
| 2026-05-04 19:26 | 36.97864 | 25.01068 | 13919 ft | 427 kts | 134° |
| 2026-05-04 19:26 | 36.95737 | 25.03654 | 13136 ft | 425 kts | 134° |
| 2026-05-04 19:26 | 36.93601 | 25.06103 | 12443 ft | 421 kts | 140° |
| 2026-05-04 19:27 | 36.91183 | 25.08127 | 11753 ft | 417 kts | 150° |
| 2026-05-04 19:27 | 36.88562 | 25.09576 | 11381 ft | 404 kts | 161° |
| 2026-05-04 19:27 | 36.85950 | 25.10633 | 11253 ft | 385 kts | 162° |
| 2026-05-04 19:27 | 36.83458 | 25.11652 | 11127 ft | 369 kts | 162° |
| 2026-05-04 19:28 | 36.81077 | 25.12634 | 11000 ft | 354 kts | 162° |
| 2026-05-04 19:28 | 36.78778 | 25.13585 | 10880 ft | 342 kts | 162° |
| 2026-05-04 19:28 | 36.76553 | 25.14503 | 10756 ft | 331 kts | 162° |
| 2026-05-04 19:28 | 36.74427 | 25.15375 | 10633 ft | 321 kts | 162° |
| 2026-05-04 19:29 | 36.72324 | 25.16235 | 10418 ft | 315 kts | 162° |
| 2026-05-04 19:29 | 36.70254 | 25.17077 | 10312 ft | 312 kts | 163° |
| 2026-05-04 19:29 | 36.68245 | 25.18086 | 10181 ft | 312 kts | 151° |
| 2026-05-04 19:29 | 36.66460 | 25.19622 | 9828 ft | 315 kts | 139° |
| 2026-05-04 19:30 | 36.64792 | 25.21400 | 9408 ft | 312 kts | 138° |
| 2026-05-04 19:30 | 36.63159 | 25.23148 | 8930 ft | 307 kts | 138° |
| 2026-05-04 19:30 | 36.61541 | 25.24878 | 8539 ft | 307 kts | 137° |
| 2026-05-04 19:30 | 36.59918 | 25.26612 | 8145 ft | 308 kts | 137° |
| 2026-05-04 19:31 | 36.58309 | 25.28325 | 7763 ft | 309 kts | 137° |
| 2026-05-04 19:31 | 36.56675 | 25.30061 | 7436 ft | 308 kts | 137° |
| 2026-05-04 19:31 | 36.55041 | 25.31792 | 7081 ft | 308 kts | 137° |
| 2026-05-04 19:31 | 36.53410 | 25.33520 | 6732 ft | 308 kts | 137° |
| 2026-05-04 19:32 | 36.51787 | 25.35241 | 6327 ft | 309 kts | 136° |
| 2026-05-04 19:32 | 36.50135 | 25.36997 | 5793 ft | 312 kts | 137° |
| 2026-05-04 19:32 | 36.48511 | 25.38715 | 5402 ft | 300 kts | 138° |
| 2026-05-04 19:32 | 36.46969 | 25.40341 | 5035 ft | 289 kts | 138° |
| 2026-05-04 19:33 | 36.45461 | 25.41933 | 4665 ft | 279 kts | 139° |
| 2026-05-04 19:33 | 36.44007 | 25.43472 | 4316 ft | 270 kts | 139° |
| 2026-05-04 19:33 | 36.42606 | 25.44957 | 3978 ft | 260 kts | 139° |
| 2026-05-04 19:33 | 36.41257 | 25.46388 | 3645 ft | 250 kts | 139° |
| 2026-05-04 19:34 | 36.40118 | 25.47901 | 3508 ft | 231 kts | 125° |
| 2026-05-04 19:34 | 36.39225 | 25.49511 | 3513 ft | 225 kts | 123° |
| 2026-05-04 19:34 | 36.38374 | 25.51118 | 3307 ft | 222 kts | 122° |
| 2026-05-04 19:34 | 36.37545 | 25.52705 | 3063 ft | 221 kts | 122° |
| 2026-05-04 19:35 | 36.36709 | 25.54307 | 2996 ft | 221 kts | 122° |
| 2026-05-04 19:35 | 36.35879 | 25.55884 | 2995 ft | 212 kts | 122° |
| 2026-05-04 19:35 | 36.35091 | 25.57379 | 3006 ft | 205 kts | 122° |
| 2026-05-04 19:35 | 36.34314 | 25.58847 | 3000 ft | 203 kts | 122° |
| 2026-05-04 19:36 | 36.33547 | 25.60309 | 3001 ft | 202 kts | 122° |
| 2026-05-04 19:36 | 36.32775 | 25.61766 | 3008 ft | 202 kts | 127° |
| 2026-05-04 19:36 | 36.31679 | 25.62797 | 3008 ft | 199 kts | 161° |
| 2026-05-04 19:36 | 36.30342 | 25.63193 | 3015 ft | 197 kts | 176° |
| 2026-05-04 19:37 | 36.28993 | 25.63303 | 3015 ft | 196 kts | 185° |
| 2026-05-04 19:37 | 36.27675 | 25.62984 | 3006 ft | 192 kts | 211° |
| 2026-05-04 19:37 | 36.26736 | 25.61898 | 2998 ft | 183 kts | 247° |
| 2026-05-04 19:37 | 36.26358 | 25.60415 | 3015 ft | 179 kts | 268° |
| 2026-05-04 19:38 | 36.26600 | 25.58955 | 3003 ft | 174 kts | 306° |
| 2026-05-04 19:38 | 36.27485 | 25.57936 | 3025 ft | 176 kts | 321° |
| 2026-05-04 19:38 | 36.28285 | 25.56831 | 2831 ft | 171 kts | 306° |
| 2026-05-04 19:38 | 36.28948 | 25.55599 | 2470 ft | 172 kts | 303° |
| 2026-05-04 19:39 | 36.29645 | 25.54400 | 2116 ft | 172 kts | 309° |
| 2026-05-04 19:39 | 36.30380 | 25.53265 | 1793 ft | 168 kts | 309° |
| 2026-05-04 19:39 | 36.31096 | 25.52220 | 1711 ft | 155 kts | 317° |
| 2026-05-04 19:39 | 36.32012 | 25.51630 | 1575 ft | 145 kts | 342° |
| 2026-05-04 19:40 | 36.32942 | 25.51274 | 1255 ft | 135 kts | 336° |
| 2026-05-04 19:40 | 36.33786 | 25.50786 | 1085 ft | 133 kts | 337° |
| 2026-05-04 19:40 | 36.34659 | 25.50426 | 919 ft | 133 kts | 339° |
| 2026-05-04 19:40 | 36.35517 | 25.50004 | 752 ft | 132 kts | 334° |
| 2026-05-04 19:41 | 36.36363 | 25.49594 | 635 ft | 132 kts | 340° |
| 2026-05-04 19:41 | 36.37211 | 25.49210 | 431 ft | 130 kts | 335° |
| 2026-05-04 19:41 | 36.38055 | 25.48796 | 355 ft | 131 kts | 336° |
| 2026-05-04 19:41 | 36.38915 | 25.48390 | 117 ft | 132 kts | 334° |
| 2026-05-04 19:42 | 36.39717 | 25.48009 | 71 ft | 104 kts | 340° |
| 2026-05-04 19:42 | 36.40234 | 25.47767 | 92 ft | 55 kts | 339° |
| 2026-05-04 19:42 | 36.40437 | 25.47671 | 89 ft | 18 kts | 339° |
| 2026-05-04 19:42 | 36.40458 | 25.47588 | 92 ft | 12 kts | 248° |
| 2026-05-04 19:43 | 36.40426 | 25.47488 | 90 ft | 11 kts | 249° |
| 2026-05-04 19:43 | 36.40420 | 25.47468 | 91 ft | 0 kts | 249° |
| 2026-05-04 19:44 | 36.40416 | 25.47455 | 92 ft | 3 kts | 249° |
| 2026-05-04 19:44 | 36.40393 | 25.47427 | 91 ft | 7 kts | 195° |
| 2026-05-04 19:44 | 36.40340 | 25.47445 | 90 ft | 9 kts | 159° |
| 2026-05-04 19:45 | 36.40280 | 25.47473 | 93 ft | 1 kts | 171° |
| 2026-05-04 19:45 | 36.40278 | 25.47467 | 93 ft | 1 kts | 228° |
| 2026-05-04 19:45 | 36.40276 | 25.47453 | 90 ft | 3 kts | 247° |
| 2026-05-04 19:45 | 36.40267 | 25.47422 | 89 ft | 0 kts | 248° |
| 2026-05-04 19:46 | 36.40265 | 25.47413 | 90 ft | 0 kts | 251° |